createdAt,value
2022-11-30T00:00:29.865Z,27.03
2022-11-30T00:02:57.971Z,27.35
2022-11-30T00:05:25.314Z,27.12
2022-11-30T00:07:54.647Z,27.06
2022-11-30T00:10:22.579Z,27.12
2022-11-30T00:12:49.969Z,27.11
2022-11-30T00:15:17.664Z,27.25
2022-11-30T00:17:45.091Z,27.18
2022-11-30T00:20:13.371Z,27.09
2022-11-30T00:22:40.837Z,27.17
2022-11-30T00:25:08.536Z,27.13
2022-11-30T00:27:35.849Z,27.02
2022-11-30T00:30:03.261Z,26.91
2022-11-30T00:32:30.770Z,27.28
2022-11-30T00:34:58.379Z,27.05
2022-11-30T00:37:25.710Z,27.02
2022-11-30T00:39:53.117Z,26.77
2022-11-30T00:42:20.393Z,26.84
2022-11-30T00:44:47.893Z,27.08
2022-11-30T00:47:15.345Z,26.89
2022-11-30T00:49:42.834Z,26.59
2022-11-30T00:52:10.118Z,26.82
2022-11-30T00:54:37.401Z,27.00
2022-11-30T00:57:04.762Z,26.80
2022-11-30T00:59:32.161Z,26.87
2022-11-30T01:01:59.374Z,26.73
2022-11-30T01:04:26.649Z,27.01
2022-11-30T01:06:53.855Z,26.97
2022-11-30T01:09:21.194Z,26.96
2022-11-30T01:11:48.576Z,27.32
2022-11-30T01:14:15.790Z,26.98
2022-11-30T01:16:43.190Z,27.01
2022-11-30T01:19:11.525Z,27.09
2022-11-30T01:21:38.767Z,26.90
2022-11-30T01:24:06.240Z,26.83
2022-11-30T01:26:33.513Z,27.06
2022-11-30T01:29:00.814Z,26.87
2022-11-30T01:31:27.992Z,26.73
2022-11-30T01:33:56.168Z,26.76
2022-11-30T01:36:25.782Z,26.54
2022-11-30T01:38:55.256Z,26.76
2022-11-30T01:41:32.192Z,26.70
2022-11-30T01:44:05.791Z,26.96
2022-11-30T01:46:38.422Z,26.74
2022-11-30T01:49:08.779Z,26.56
2022-11-30T01:51:38.755Z,26.59
2022-11-30T01:54:08.004Z,26.87
2022-11-30T01:56:36.453Z,26.87
2022-11-30T01:59:03.647Z,26.67
2022-11-30T02:01:31.354Z,26.64
2022-11-30T02:04:08.786Z,26.76
2022-11-30T02:06:36.171Z,26.66
2022-11-30T02:09:03.452Z,26.68
2022-11-30T02:11:30.876Z,26.83
2022-11-30T02:14:16.562Z,26.61
2022-11-30T02:16:43.906Z,26.29
2022-11-30T02:19:13.949Z,26.50
2022-11-30T02:21:56.235Z,26.63
2022-11-30T02:24:23.510Z,26.55
2022-11-30T02:27:02.657Z,26.43
2022-11-30T02:29:31.797Z,26.48
2022-11-30T02:31:58.937Z,26.55
2022-11-30T02:34:28.065Z,26.47
2022-11-30T02:36:56.570Z,26.38
2022-11-30T02:39:24.451Z,26.14
2022-11-30T02:41:51.923Z,26.43
2022-11-30T02:44:19.876Z,26.50
2022-11-30T02:47:05.882Z,26.61
2022-11-30T02:49:39.557Z,26.50
2022-11-30T02:52:08.056Z,26.15
2022-11-30T02:54:35.400Z,26.53
2022-11-30T02:57:02.856Z,26.52
2022-11-30T02:59:30.070Z,26.16
2022-11-30T03:01:57.623Z,26.16
2022-11-30T03:04:24.830Z,26.25
2022-11-30T03:06:52.312Z,26.12
2022-11-30T03:09:19.516Z,26.15
2022-11-30T03:11:46.756Z,26.22
2022-11-30T03:14:13.985Z,25.83
2022-11-30T03:16:41.288Z,25.47
2022-11-30T03:19:08.479Z,26.13
2022-11-30T03:21:35.789Z,25.89
2022-11-30T03:24:03.115Z,26.33
2022-11-30T03:26:30.511Z,26.28
2022-11-30T03:28:57.841Z,26.07
2022-11-30T03:31:25.132Z,26.21
2022-11-30T03:33:52.389Z,25.96
2022-11-30T03:36:19.754Z,26.13
2022-11-30T03:38:47.927Z,26.45
2022-11-30T03:41:19.309Z,25.99
2022-11-30T03:43:47.002Z,26.05
2022-11-30T03:46:14.564Z,25.86
2022-11-30T03:48:44.924Z,26.08
2022-11-30T03:51:13.121Z,26.24
2022-11-30T03:53:40.847Z,26.12
2022-11-30T03:56:09.280Z,26.17
2022-11-30T03:58:36.558Z,26.06
2022-11-30T04:01:08.879Z,26.02
2022-11-30T04:03:36.741Z,25.79
2022-11-30T04:06:04.619Z,25.87
2022-11-30T04:08:32.316Z,25.70
2022-11-30T04:11:00.598Z,26.16
2022-11-30T04:13:30.902Z,25.71
2022-11-30T04:15:58.723Z,25.76
2022-11-30T04:18:26.750Z,25.82
2022-11-30T04:20:55.229Z,26.03
2022-11-30T04:23:23.092Z,25.78
2022-11-30T04:25:50.591Z,25.52
2022-11-30T04:28:18.591Z,25.30
2022-11-30T04:30:46.449Z,25.85
2022-11-30T04:33:14.401Z,25.87
2022-11-30T04:35:53.298Z,25.70
2022-11-30T04:38:20.506Z,25.51
2022-11-30T04:40:47.789Z,25.96
2022-11-30T04:43:15.353Z,25.63
2022-11-30T04:45:44.098Z,25.97
2022-11-30T04:48:11.372Z,25.71
2022-11-30T04:50:39.547Z,25.58
2022-11-30T04:53:07.530Z,25.66
2022-11-30T04:55:36.073Z,25.79
2022-11-30T04:58:03.785Z,25.65
2022-11-30T05:00:31.376Z,25.90
2022-11-30T05:02:58.733Z,25.58
2022-11-30T05:05:26.042Z,25.87
2022-11-30T05:07:57.644Z,25.85
2022-11-30T05:10:25.795Z,25.45
2022-11-30T05:12:53.017Z,25.67
2022-11-30T05:15:20.295Z,25.73
2022-11-30T05:17:47.552Z,25.45
2022-11-30T05:20:15.003Z,25.92
2022-11-30T05:22:42.235Z,25.71
2022-11-30T05:25:10.031Z,25.43
2022-11-30T05:27:37.724Z,25.72
2022-11-30T05:30:05.883Z,25.87
2022-11-30T05:32:33.164Z,25.25
2022-11-30T05:35:00.416Z,25.34
2022-11-30T05:37:27.672Z,25.35
2022-11-30T05:39:55.426Z,25.55
2022-11-30T05:42:22.991Z,25.80
2022-11-30T05:44:50.604Z,25.50
2022-11-30T05:47:18.128Z,25.89
2022-11-30T05:49:45.427Z,25.85
2022-11-30T05:52:12.689Z,25.67
2022-11-30T05:54:40.098Z,25.98
2022-11-30T05:57:07.315Z,25.80
2022-11-30T05:59:34.553Z,25.75
2022-11-30T06:02:01.861Z,26.16
2022-11-30T06:04:29.197Z,26.02
2022-11-30T06:06:56.507Z,26.14
2022-11-30T06:09:24.015Z,25.74
2022-11-30T06:11:51.460Z,25.50
2022-11-30T06:14:18.738Z,25.70
2022-11-30T06:16:46.252Z,25.79
2022-11-30T06:19:13.764Z,25.75
2022-11-30T06:21:40.936Z,25.73
2022-11-30T06:24:08.427Z,25.86
2022-11-30T06:26:35.623Z,25.56
2022-11-30T06:29:02.907Z,25.61
2022-11-30T06:31:31.005Z,25.75
2022-11-30T06:33:58.348Z,25.49
2022-11-30T06:36:25.617Z,25.46
2022-11-30T06:38:52.958Z,25.63
2022-11-30T06:41:20.225Z,25.80
2022-11-30T06:43:47.429Z,25.56
2022-11-30T06:46:14.736Z,25.26
2022-11-30T06:48:42.074Z,25.56
2022-11-30T06:51:10.166Z,25.50
2022-11-30T06:53:37.486Z,25.39
2022-11-30T06:56:10.386Z,25.60
2022-11-30T06:58:39.686Z,26.02
2022-11-30T07:01:11.569Z,25.16
2022-11-30T07:03:39.407Z,25.62
2022-11-30T07:06:07.643Z,25.52
2022-11-30T07:08:34.855Z,25.54
2022-11-30T07:11:02.315Z,25.62
2022-11-30T07:13:30.206Z,25.69
2022-11-30T07:15:57.490Z,25.54
2022-11-30T07:18:31.459Z,25.66
2022-11-30T07:21:06.089Z,25.96
2022-11-30T07:23:56.255Z,25.92
2022-11-30T07:26:24.540Z,25.72
2022-11-30T07:28:55.205Z,25.64
2022-11-30T07:31:24.222Z,26.06
2022-11-30T07:33:51.816Z,25.92
2022-11-30T07:36:20.365Z,25.83
2022-11-30T07:38:47.898Z,25.21
2022-11-30T07:41:15.590Z,26.01
2022-11-30T07:43:42.819Z,25.80
2022-11-30T07:46:11.710Z,25.57
2022-11-30T07:48:39.138Z,25.26
2022-11-30T07:51:07.596Z,25.41
2022-11-30T07:53:34.928Z,25.44
2022-11-30T07:56:03.056Z,25.74
2022-11-30T07:58:31.226Z,25.51
2022-11-30T08:01:05.583Z,25.25
2022-11-30T08:03:36.818Z,25.30
2022-11-30T08:06:14.584Z,25.39
2022-11-30T08:08:43.501Z,25.66
2022-11-30T08:11:11.721Z,25.42
2022-11-30T08:13:39.548Z,25.56
2022-11-30T08:16:08.814Z,25.63
2022-11-30T08:18:36.164Z,25.38
2022-11-30T08:21:04.469Z,25.40
2022-11-30T08:23:33.953Z,25.16
2022-11-30T08:26:08.345Z,25.35
2022-11-30T08:28:36.336Z,25.28
2022-11-30T08:31:05.573Z,25.43
2022-11-30T08:33:34.146Z,25.55
2022-11-30T08:36:12.400Z,25.12
2022-11-30T08:38:40.497Z,25.36
2022-11-30T08:41:09.466Z,25.32
2022-11-30T08:43:36.783Z,25.36
2022-11-30T08:46:21.252Z,25.32
2022-11-30T08:49:02.330Z,25.57
2022-11-30T08:52:08.764Z,25.61
2022-11-30T08:54:27.577Z,25.76
2022-11-30T08:56:54.776Z,25.42
2022-11-30T08:59:22.340Z,25.58
2022-11-30T09:01:49.555Z,25.55
2022-11-30T09:04:16.780Z,25.57
2022-11-30T09:06:44.022Z,25.67
2022-11-30T09:09:11.399Z,25.21
2022-11-30T09:11:38.725Z,25.11
2022-11-30T09:14:06.940Z,25.05
2022-11-30T09:16:34.272Z,25.16
2022-11-30T09:19:01.713Z,25.08
2022-11-30T09:21:29.347Z,25.10
2022-11-30T09:23:57.069Z,25.28
2022-11-30T09:26:25.661Z,25.06
2022-11-30T09:28:53.673Z,25.33
2022-11-30T09:31:22.219Z,24.92
2022-11-30T09:33:49.606Z,25.11
2022-11-30T09:36:18.785Z,24.87
2022-11-30T09:38:46.914Z,24.55
2022-11-30T09:41:32.749Z,25.28
2022-11-30T09:44:18.898Z,25.55
2022-11-30T09:46:50.224Z,25.66
2022-11-30T09:49:21.977Z,25.66
2022-11-30T09:51:50.273Z,25.14
2022-11-30T09:54:22.089Z,25.32
2022-11-30T09:56:50.185Z,24.89
2022-11-30T09:59:22.303Z,25.38
2022-11-30T10:01:55.351Z,25.35
2022-11-30T10:04:25.762Z,25.23
2022-11-30T10:07:06.050Z,25.06
2022-11-30T10:09:33.373Z,24.96
2022-11-30T10:12:14.554Z,24.73
2022-11-30T10:15:05.346Z,25.34
2022-11-30T10:18:11.268Z,25.50
2022-11-30T10:20:50.150Z,24.85
2022-11-30T10:23:18.489Z,24.93
2022-11-30T10:25:56.500Z,25.26
2022-11-30T10:28:49.279Z,25.52
2022-11-30T10:31:17.780Z,25.34
2022-11-30T10:33:49.622Z,25.08
2022-11-30T10:36:35.957Z,25.14
2022-11-30T10:39:07.338Z,24.88
2022-11-30T10:41:43.515Z,25.42
2022-11-30T10:44:19.781Z,25.00
2022-11-30T10:46:55.619Z,25.07
2022-11-30T10:49:23.551Z,24.61
2022-11-30T10:51:52.590Z,24.79
2022-11-30T10:54:22.631Z,24.59
2022-11-30T10:56:50.008Z,24.57
2022-11-30T10:59:19.762Z,24.96
2022-11-30T11:01:47.326Z,24.57
2022-11-30T11:04:19.050Z,24.73
2022-11-30T11:06:48.531Z,24.89
2022-11-30T11:09:34.540Z,25.24
2022-11-30T11:12:04.930Z,24.40
2022-11-30T11:14:37.677Z,24.74
2022-11-30T11:17:23.402Z,24.94
2022-11-30T11:19:51.756Z,24.83
2022-11-30T11:22:23.253Z,24.77
2022-11-30T11:24:52.126Z,24.90
2022-11-30T11:27:29.964Z,24.82
2022-11-30T11:30:01.997Z,24.88
2022-11-30T11:32:30.500Z,25.02
2022-11-30T11:34:58.248Z,25.34
2022-11-30T11:37:28.926Z,25.35
2022-11-30T11:40:02.436Z,25.26
2022-11-30T11:42:32.489Z,25.23
2022-11-30T11:45:00.918Z,25.22
2022-11-30T11:47:34.468Z,25.13
2022-11-30T11:50:06.912Z,25.01
2022-11-30T11:52:34.234Z,25.31
2022-11-30T11:55:03.563Z,24.94
2022-11-30T11:57:38.097Z,25.12
2022-11-30T12:00:05.701Z,24.96
2022-11-30T12:02:45.017Z,24.96
2022-11-30T12:05:27.092Z,24.61
2022-11-30T12:08:07.422Z,24.39
2022-11-30T12:10:54.656Z,24.77
2022-11-30T12:13:23.801Z,24.86
2022-11-30T12:15:57.159Z,24.67
2022-11-30T12:18:28.728Z,24.68
2022-11-30T12:20:58.232Z,24.72
2022-11-30T12:23:28.363Z,24.25
2022-11-30T12:26:09.398Z,24.35
2022-11-30T12:28:47.598Z,24.41
2022-11-30T12:31:15.877Z,24.83
2022-11-30T12:34:01.969Z,24.66
2022-11-30T12:36:35.110Z,24.92
2022-11-30T12:39:09.992Z,24.78
2022-11-30T12:41:37.394Z,24.65
2022-11-30T12:44:04.659Z,25.02
2022-11-30T12:46:41.247Z,24.96
2022-11-30T12:49:27.103Z,24.15
2022-11-30T12:52:00.771Z,23.46
2022-11-30T12:54:48.539Z,24.23
2022-11-30T12:57:35.207Z,24.42
2022-11-30T13:00:05.320Z,24.95
2022-11-30T13:02:51.305Z,24.62
2022-11-30T13:05:22.848Z,24.64
2022-11-30T13:07:52.873Z,24.94
2022-11-30T13:10:27.289Z,24.57
2022-11-30T13:12:56.240Z,24.81
2022-11-30T13:15:28.274Z,24.89
2022-11-30T13:17:55.868Z,24.35
2022-11-30T13:20:26.172Z,24.94
2022-11-30T13:23:08.432Z,24.58
2022-11-30T13:26:07.319Z,24.37
2022-11-30T13:28:35.420Z,24.37
2022-11-30T13:31:22.026Z,24.71
2022-11-30T13:33:57.041Z,24.76
2022-11-30T13:36:50.652Z,25.01
2022-11-30T13:39:23.395Z,24.36
2022-11-30T13:42:11.060Z,24.65
2022-11-30T13:44:40.538Z,24.42
2022-11-30T13:47:27.802Z,24.42
2022-11-30T13:49:56.347Z,24.58
2022-11-30T13:52:42.197Z,24.49
2022-11-30T13:55:28.309Z,24.43
2022-11-30T13:57:55.632Z,24.75
2022-11-30T14:00:31.654Z,24.40
2022-11-30T14:03:23.285Z,24.60
2022-11-30T14:05:51.725Z,24.54
2022-11-30T14:08:21.995Z,24.98
2022-11-30T14:10:53.270Z,25.22
2022-11-30T14:13:23.550Z,24.89
2022-11-30T14:15:53.133Z,25.01
2022-11-30T14:18:20.619Z,25.11
2022-11-30T14:20:49.705Z,25.36
2022-11-30T14:23:29.862Z,25.24
2022-11-30T14:26:01.701Z,25.25
2022-11-30T14:28:43.856Z,24.92
2022-11-30T14:31:16.490Z,25.06
2022-11-30T14:33:53.471Z,25.14
2022-11-30T14:36:22.140Z,24.95
2022-11-30T14:38:49.349Z,24.92
2022-11-30T14:41:25.938Z,25.22
2022-11-30T14:44:00.624Z,24.97
2022-11-30T14:46:28.138Z,24.57
2022-11-30T14:49:13.771Z,24.48
2022-11-30T14:51:54.888Z,24.77
2022-11-30T14:54:40.999Z,24.83
2022-11-30T14:57:14.358Z,24.85
2022-11-30T14:59:53.248Z,25.01
2022-11-30T15:02:29.689Z,24.71
2022-11-30T15:04:57.744Z,24.58
2022-11-30T15:07:25.931Z,24.95
2022-11-30T15:10:00.080Z,24.58
2022-11-30T15:12:27.345Z,24.31
2022-11-30T15:15:12.638Z,24.99
2022-11-30T15:17:46.567Z,24.51
2022-11-30T15:20:18.576Z,24.49
2022-11-30T15:22:45.837Z,24.40
2022-11-30T15:25:13.323Z,24.63
2022-11-30T15:27:40.635Z,24.28
2022-11-30T15:30:13.282Z,24.64
2022-11-30T15:32:43.441Z,24.61
2022-11-30T15:35:17.632Z,24.34
2022-11-30T15:37:45.069Z,24.99
2022-11-30T15:40:16.076Z,24.41
2022-11-30T15:42:47.451Z,25.09
2022-11-30T15:45:38.802Z,24.64
2022-11-30T15:48:26.179Z,24.99
2022-11-30T15:50:53.460Z,24.67
2022-11-30T15:53:23.155Z,24.90
2022-11-30T15:55:51.869Z,24.91
2022-11-30T15:58:28.172Z,25.11
2022-11-30T16:01:05.067Z,24.38
2022-11-30T16:03:55.305Z,24.72
2022-11-30T16:06:23.249Z,25.09
2022-11-30T16:08:50.949Z,24.71
2022-11-30T16:11:19.048Z,25.00
2022-11-30T16:13:47.439Z,24.67
2022-11-30T16:16:19.887Z,24.82
2022-11-30T16:18:47.683Z,24.63
2022-11-30T16:21:16.574Z,25.02
2022-11-30T16:23:43.983Z,24.84
2022-11-30T16:26:35.994Z,24.07
2022-11-30T16:29:04.571Z,24.59
2022-11-30T16:31:32.149Z,25.04
2022-11-30T16:33:59.573Z,24.19
2022-11-30T16:36:26.877Z,24.74
2022-11-30T16:38:54.463Z,24.17
2022-11-30T16:41:23.032Z,24.69
2022-11-30T16:43:56.684Z,24.72
2022-11-30T16:46:25.116Z,24.35
2022-11-30T16:48:52.951Z,24.77
2022-11-30T16:51:38.635Z,24.43
2022-11-30T16:54:05.992Z,24.33
2022-11-30T16:56:33.649Z,24.26
2022-11-30T16:59:01.021Z,24.40
2022-11-30T17:01:42.796Z,24.42
2022-11-30T17:04:12.294Z,24.62
2022-11-30T17:06:39.656Z,24.58
2022-11-30T17:09:11.173Z,25.09
2022-11-30T17:11:39.046Z,24.34
2022-11-30T17:14:06.543Z,24.35
2022-11-30T17:16:33.849Z,24.43
2022-11-30T17:19:01.143Z,24.35
2022-11-30T17:21:29.960Z,23.64
2022-11-30T17:23:57.593Z,23.54
2022-11-30T17:26:25.252Z,23.85
2022-11-30T17:28:52.556Z,23.43
2022-11-30T17:31:19.976Z,24.02
2022-11-30T17:33:48.603Z,23.57
2022-11-30T17:36:16.644Z,23.63
2022-11-30T17:38:44.312Z,24.00
2022-11-30T17:41:19.360Z,23.84
2022-11-30T17:43:47.515Z,23.78
2022-11-30T17:46:16.364Z,23.65
2022-11-30T17:48:44.232Z,23.60
2022-11-30T17:51:12.273Z,23.81
2022-11-30T17:53:40.106Z,23.59
2022-11-30T17:56:08.934Z,23.58
2022-11-30T17:58:43.005Z,23.72
2022-11-30T18:01:18.339Z,23.83
2022-11-30T18:03:45.808Z,23.72
2022-11-30T18:06:13.427Z,23.64
2022-11-30T18:08:40.987Z,24.13
2022-11-30T18:11:12.384Z,23.54
2022-11-30T18:13:40.330Z,24.00
2022-11-30T18:16:12.270Z,23.46
2022-11-30T18:18:45.768Z,23.83
2022-11-30T18:21:15.904Z,23.50
2022-11-30T18:23:43.284Z,23.65
2022-11-30T18:26:12.261Z,23.43
2022-11-30T18:28:39.536Z,23.57
2022-11-30T18:31:06.987Z,23.57
2022-11-30T18:33:34.766Z,23.33
2022-11-30T18:36:02.872Z,23.56
2022-11-30T18:38:37.057Z,23.44
2022-11-30T18:41:05.346Z,23.63
2022-11-30T18:43:33.958Z,23.55
2022-11-30T18:46:08.507Z,23.46
2022-11-30T18:48:36.799Z,23.70
2022-11-30T18:51:14.373Z,23.76
2022-11-30T18:53:41.694Z,23.77
2022-11-30T18:56:13.707Z,23.77
2022-11-30T18:58:41.617Z,24.09
2022-11-30T19:01:09.860Z,23.56
2022-11-30T19:03:37.264Z,23.67
2022-11-30T19:06:05.931Z,23.71
2022-11-30T19:08:33.759Z,23.58
2022-11-30T19:11:05.240Z,23.81
2022-11-30T19:13:33.482Z,23.55
2022-11-30T19:16:01.847Z,23.82
2022-11-30T19:18:29.341Z,23.78
2022-11-30T19:20:56.602Z,23.76
2022-11-30T19:23:24.386Z,24.05
2022-11-30T19:25:52.127Z,23.90
2022-11-30T19:28:19.484Z,24.07
2022-11-30T19:30:46.786Z,24.10
2022-11-30T19:33:14.313Z,24.04
2022-11-30T19:35:41.690Z,24.11
2022-11-30T19:38:09.059Z,24.29
2022-11-30T19:40:37.097Z,24.06
2022-11-30T19:43:04.651Z,24.17
2022-11-30T19:45:31.958Z,24.45
2022-11-30T19:47:59.254Z,24.35
2022-11-30T19:50:26.734Z,23.85
2022-11-30T19:52:53.952Z,23.87
2022-11-30T19:55:21.220Z,24.38
2022-11-30T19:57:48.534Z,23.97
2022-11-30T20:00:15.955Z,24.01
2022-11-30T20:02:43.227Z,24.31
2022-11-30T20:05:10.540Z,24.23
2022-11-30T20:07:37.983Z,24.38
2022-11-30T20:10:05.518Z,23.90
2022-11-30T20:12:32.808Z,23.86
2022-11-30T20:15:00.162Z,24.29
2022-11-30T20:17:27.497Z,24.02
2022-11-30T20:19:54.793Z,24.20
2022-11-30T20:22:22.048Z,24.31
2022-11-30T20:24:51.055Z,24.29
2022-11-30T20:27:22.704Z,24.46
2022-11-30T20:29:50.644Z,23.86
2022-11-30T20:32:18.497Z,23.97
2022-11-30T20:34:46.301Z,24.14
2022-11-30T20:37:13.856Z,24.34
2022-11-30T20:39:45.767Z,24.37
2022-11-30T20:42:13.690Z,24.32
2022-11-30T20:44:40.855Z,23.57
2022-11-30T20:47:08.673Z,24.10
2022-11-30T20:49:35.921Z,24.04
2022-11-30T20:52:03.558Z,23.92
2022-11-30T20:54:31.667Z,23.96
2022-11-30T20:56:59.554Z,24.22
2022-11-30T20:59:26.884Z,24.23
2022-11-30T21:01:55.366Z,23.99
2022-11-30T21:04:24.137Z,24.07
2022-11-30T21:06:51.642Z,23.88
2022-11-30T21:09:19.675Z,24.06
2022-11-30T21:11:48.041Z,24.11
2022-11-30T21:14:15.646Z,24.19
2022-11-30T21:16:43.226Z,24.17
2022-11-30T21:19:11.918Z,24.09
2022-11-30T21:21:39.284Z,23.79
2022-11-30T21:24:07.729Z,24.59
2022-11-30T21:26:37.265Z,24.48
2022-11-30T21:29:06.364Z,24.24
2022-11-30T21:31:34.082Z,24.66
2022-11-30T21:34:01.487Z,24.55
2022-11-30T21:36:29.143Z,24.28
2022-11-30T21:39:04.621Z,24.06
2022-11-30T21:41:34.218Z,24.13
2022-11-30T21:44:01.567Z,24.07
2022-11-30T21:46:29.011Z,24.53
2022-11-30T21:48:56.451Z,24.62
2022-11-30T21:51:24.971Z,24.37
2022-11-30T21:53:53.569Z,24.62
2022-11-30T21:56:22.288Z,24.27
2022-11-30T21:58:50.780Z,24.71
2022-11-30T22:01:19.627Z,24.19
2022-11-30T22:03:47.243Z,24.47
2022-11-30T22:06:16.294Z,24.34
2022-11-30T22:08:43.547Z,24.47
2022-11-30T22:11:12.492Z,24.26
2022-11-30T22:13:40.315Z,24.27
2022-11-30T22:16:12.563Z,24.34
2022-11-30T22:18:40.263Z,24.72
2022-11-30T22:21:11.985Z,24.63
2022-11-30T22:23:40.351Z,24.73
2022-11-30T22:26:26.851Z,24.41
2022-11-30T22:28:55.837Z,24.43
2022-11-30T22:31:25.057Z,24.75
2022-11-30T22:33:52.298Z,24.67
2022-11-30T22:36:23.628Z,24.37
2022-11-30T22:38:55.067Z,24.37
2022-11-30T22:41:22.586Z,24.38
2022-11-30T22:43:49.850Z,24.85
2022-11-30T22:46:21.304Z,24.64
2022-11-30T22:48:48.807Z,24.51
2022-11-30T22:51:17.394Z,24.41
2022-11-30T22:53:45.735Z,24.28
2022-11-30T22:56:14.391Z,24.21
2022-11-30T22:58:42.427Z,24.41
2022-11-30T23:01:10.582Z,24.30
2022-11-30T23:03:38.438Z,24.16
2022-11-30T23:06:06.308Z,23.62
2022-11-30T23:08:34.064Z,24.00
2022-11-30T23:11:02.469Z,23.53
2022-11-30T23:13:30.216Z,24.26
2022-11-30T23:15:59.770Z,24.14
2022-11-30T23:18:28.049Z,24.12
2022-11-30T23:20:56.178Z,24.03
2022-11-30T23:23:23.971Z,24.45
2022-11-30T23:25:51.312Z,24.52
2022-11-30T23:28:18.985Z,24.29
2022-11-30T23:30:46.400Z,24.59
2022-11-30T23:33:13.845Z,24.00
2022-11-30T23:35:43.984Z,24.17
2022-11-30T23:38:12.394Z,24.55
2022-11-30T23:40:39.680Z,23.92
2022-11-30T23:43:07.011Z,23.92
2022-11-30T23:45:34.194Z,24.02
2022-11-30T23:48:02.067Z,24.25
2022-11-30T23:50:29.342Z,24.06
2022-11-30T23:52:56.660Z,24.29
2022-11-30T23:55:23.882Z,24.61
2022-11-30T23:57:51.279Z,24.03
